Time;durP1;ratioP1;P1;durP2;ratioP2;P2;SDS_P1;SDS_P2;PMS_P1;PMS_P2;Temp;Humidity;BMP_temperature;BMP_pressure;BME280_temperature;BME280_humidity;BME280_pressure;Samples;Min_cycle;Max_cycle;Signal;HPM_P1;HPM_P2
2022/08/19 00:01:26;;;;;;;11.88;9.32;;;16.40;99.90;;;;;;5044142;28;20045;-88
2022/08/19 00:03:51;;;;;;;12.60;9.73;;;16.40;99.90;;;;;;5031203;28;20041;-88
2022/08/19 00:06:17;;;;;;;11.88;10.07;;;16.40;99.90;;;;;;5047703;28;20029;-88
2022/08/19 00:08:43;;;;;;;13.55;9.45;;;16.30;99.90;;;;;;5038323;28;20048;-89
2022/08/19 00:11:09;;;;;;;11.95;8.98;;;16.40;99.90;;;;;;5046202;28;20044;-88
2022/08/19 00:13:35;;;;;;;12.10;9.13;;;16.30;99.90;;;;;;5050754;28;20049;-87
2022/08/19 00:16:02;;;;;;;11.90;9.18;;;16.20;99.90;;;;;;5048684;28;20047;-88
2022/08/19 00:18:27;;;;;;;11.45;9.32;;;16.20;99.90;;;;;;5043393;28;20052;-87
2022/08/19 00:20:54;;;;;;;11.88;9.93;;;16.10;99.90;;;;;;5029879;28;20429;-87
2022/08/19 00:23:19;;;;;;;11.73;9.00;;;16.00;99.90;;;;;;5033708;28;20032;-87
2022/08/19 00:25:45;;;;;;;12.65;9.68;;;16.10;99.90;;;;;;5048608;28;20079;-88
2022/08/19 00:28:11;;;;;;;13.55;9.48;;;16.10;99.90;;;;;;5044351;28;20073;-86
2022/08/19 00:30:37;;;;;;;13.07;10.18;;;16.10;99.90;;;;;;5031701;28;20045;-88
2022/08/19 00:33:03;;;;;;;13.13;10.23;;;16.10;99.90;;;;;;5047987;28;20049;-88
2022/08/19 00:35:29;;;;;;;12.82;9.52;;;16.10;99.90;;;;;;5048833;28;20033;-87
2022/08/19 00:37:55;;;;;;;13.32;10.30;;;16.10;99.90;;;;;;5030452;28;20132;-88
2022/08/19 00:40:20;;;;;;;12.90;10.05;;;16.10;99.90;;;;;;5047718;28;20361;-87
2022/08/19 00:42:47;;;;;;;12.90;10.38;;;16.00;99.90;;;;;;5044422;28;20508;-87
2022/08/19 00:45:17;;;;;;;13.82;10.50;;;16.00;99.90;;;;;;5026825;28;20040;-88
2022/08/19 00:47:44;;;;;;;12.40;10.63;;;15.90;99.90;;;;;;5027553;28;20688;-88
2022/08/19 00:50:13;;;;;;;13.40;10.70;;;16.00;99.90;;;;;;5018642;28;20084;-88
2022/08/19 00:52:44;;;;;;;12.85;10.25;;;16.00;99.90;;;;;;5027331;28;20045;-88
2022/08/19 00:55:13;;;;;;;12.98;10.48;;;15.90;99.90;;;;;;5035434;28;20130;-88
2022/08/19 00:57:44;;;;;;;12.95;10.15;;;15.80;99.90;;;;;;5012265;28;20057;-89
2022/08/19 01:00:14;;;;;;;14.32;10.93;;;15.80;99.90;;;;;;5011902;28;20060;-88
2022/08/19 01:02:41;;;;;;;14.55;10.63;;;15.80;99.90;;;;;;5012547;28;20101;-89
2022/08/19 01:05:15;;;;;;;12.50;9.88;;;15.70;99.90;;;;;;5033510;28;20037;-88
2022/08/19 01:07:41;;;;;;;13.18;10.13;;;15.80;99.90;;;;;;5014187;28;20060;-87
2022/08/19 01:10:11;;;;;;;13.52;10.27;;;15.70;99.90;;;;;;5016477;28;20476;-88
2022/08/19 01:12:38;;;;;;;13.70;10.23;;;15.70;99.90;;;;;;5029405;28;20051;-87
2022/08/19 01:15:07;;;;;;;12.82;9.98;;;15.70;99.90;;;;;;5018150;28;20682;-88
2022/08/19 01:17:36;;;;;;;12.85;10.13;;;15.70;99.90;;;;;;5033053;28;20045;-88
2022/08/19 01:20:04;;;;;;;13.32;10.25;;;15.70;99.90;;;;;;5014744;28;20071;-88
2022/08/19 01:22:53;;;;;;;13.55;10.32;;;15.70;99.90;;;;;;5031763;28;20428;-87
2022/08/19 01:25:27;;;;;;;12.77;10.30;;;15.60;99.90;;;;;;5036313;28;20050;-88
2022/08/19 01:27:53;;;;;;;11.95;10.07;;;15.60;99.90;;;;;;5032239;28;20053;-87
2022/08/19 01:30:30;;;;;;;11.73;9.23;;;15.60;99.90;;;;;;5042044;28;20048;-87
2022/08/19 01:33:00;;;;;;;12.98;9.95;;;15.60;99.90;;;;;;5031114;28;20080;-88
2022/08/19 01:35:28;;;;;;;13.20;10.10;;;15.60;99.90;;;;;;5048275;28;20055;-87
2022/08/19 01:38:00;;;;;;;11.73;9.63;;;15.60;99.90;;;;;;5041971;28;20530;-87
2022/08/19 01:40:31;;;;;;;11.70;9.02;;;15.50;99.90;;;;;;5038916;28;20052;-87
2022/08/19 01:42:57;;;;;;;13.25;9.30;;;15.40;99.90;;;;;;5030444;28;20139;-88
2022/08/19 01:45:25;;;;;;;10.95;9.10;;;15.40;99.90;;;;;;5027273;28;20555;-87
2022/08/19 01:47:51;;;;;;;11.25;8.40;;;15.40;99.90;;;;;;5031375;28;20107;-88
2022/08/19 01:50:17;;;;;;;11.00;8.88;;;15.30;99.90;;;;;;5022806;28;20033;-87
2022/08/19 01:52:44;;;;;;;13.15;9.63;;;15.30;99.90;;;;;;5042152;28;20057;-88
2022/08/19 01:55:20;;;;;;;13.13;9.50;;;15.30;99.90;;;;;;5033436;28;20045;-87
2022/08/19 01:57:55;;;;;;;12.82;10.10;;;15.30;99.90;;;;;;5035985;28;20045;-88
2022/08/19 02:00:23;;;;;;;13.30;11.07;;;15.30;99.90;;;;;;5028726;28;20136;-86
2022/08/19 02:02:49;;;;;;;12.60;9.43;;;15.30;99.90;;;;;;5041271;28;20033;-87
2022/08/19 02:05:16;;;;;;;13.95;10.50;;;15.20;99.90;;;;;;5047325;28;20051;-87
2022/08/19 02:07:41;;;;;;;11.85;9.98;;;15.20;99.90;;;;;;5052161;28;20083;-85
2022/08/19 02:10:12;;;;;;;12.32;9.95;;;15.20;99.90;;;;;;5033408;28;20048;-86
2022/08/19 02:12:37;;;;;;;13.87;11.43;;;15.20;99.90;;;;;;5033758;28;20081;-87
2022/08/19 02:15:04;;;;;;;14.68;11.25;;;15.20;99.90;;;;;;5047720;28;20083;-86
2022/08/19 02:17:29;;;;;;;13.40;10.23;;;15.20;99.90;;;;;;5043598;28;20470;-85
2022/08/19 02:19:56;;;;;;;11.77;10.00;;;15.20;99.90;;;;;;5040116;28;20081;-86
2022/08/19 02:22:22;;;;;;;15.02;10.98;;;15.20;99.90;;;;;;5043232;28;20084;-86
2022/08/19 02:24:48;;;;;;;13.07;9.98;;;15.20;99.90;;;;;;5039487;28;20379;-86
2022/08/19 02:27:14;;;;;;;13.68;10.25;;;15.20;99.90;;;;;;5032514;28;20056;-86
2022/08/19 02:29:40;;;;;;;13.15;9.57;;;15.20;99.90;;;;;;5035902;28;20060;-86
2022/08/19 02:32:07;;;;;;;12.00;8.38;;;15.20;99.90;;;;;;5043760;28;20116;-86
2022/08/19 02:34:33;;;;;;;12.25;8.82;;;15.10;99.90;;;;;;5031537;28;20049;-85
2022/08/19 02:36:59;;;;;;;12.13;9.25;;;15.10;99.90;;;;;;5050311;28;20045;-86
2022/08/19 02:39:24;;;;;;;11.20;9.35;;;15.10;99.90;;;;;;5029265;28;20084;-86
2022/08/19 02:41:51;;;;;;;11.63;9.30;;;15.10;99.90;;;;;;5043896;28;20128;-86
2022/08/19 02:44:17;;;;;;;11.43;8.52;;;15.00;99.90;;;;;;5048294;28;20048;-86
2022/08/19 02:46:45;;;;;;;12.05;9.13;;;14.90;99.90;;;;;;5034772;28;20485;-86
2022/08/19 02:49:11;;;;;;;13.30;10.30;;;15.00;99.90;;;;;;5015655;28;20087;-86
2022/08/19 02:51:40;;;;;;;14.15;10.02;;;14.90;99.90;;;;;;5038803;28;20041;-86
2022/08/19 02:54:07;;;;;;;13.35;10.25;;;14.90;99.90;;;;;;5040274;28;20048;-86
2022/08/19 02:56:35;;;;;;;13.63;10.35;;;14.90;99.90;;;;;;5040539;28;20064;-86
2022/08/19 02:59:01;;;;;;;13.70;11.07;;;14.80;99.90;;;;;;5049699;28;20052;-86
2022/08/19 03:01:32;;;;;;;13.73;11.18;;;14.80;99.90;;;;;;5038249;28;20049;-86
2022/08/19 03:04:00;;;;;;;13.90;11.45;;;14.80;99.90;;;;;;5024143;28;20036;-86
2022/08/19 03:06:27;;;;;;;13.98;10.80;;;14.80;99.90;;;;;;5050046;28;20052;-87
2022/08/19 03:08:53;;;;;;;15.05;10.90;;;14.70;99.90;;;;;;5019142;28;20555;-86
2022/08/19 03:11:20;;;;;;;13.32;10.80;;;14.70;99.90;;;;;;5047636;28;20049;-87
2022/08/19 03:13:48;;;;;;;15.25;12.20;;;14.80;99.90;;;;;;5044964;28;20045;-87
2022/08/19 03:16:14;;;;;;;15.85;11.90;;;14.80;99.90;;;;;;5033809;28;20405;-86
2022/08/19 03:18:40;;;;;;;14.73;11.68;;;14.80;99.90;;;;;;5032037;28;20391;-86
2022/08/19 03:21:06;;;;;;;15.57;11.65;;;14.70;99.90;;;;;;5046786;28;20071;-86
2022/08/19 03:23:32;;;;;;;13.60;11.07;;;14.70;99.90;;;;;;5051968;28;20370;-87
2022/08/19 03:25:58;;;;;;;13.98;11.20;;;14.80;99.90;;;;;;5050081;28;20079;-86
2022/08/19 03:28:24;;;;;;;15.73;11.70;;;14.70;99.90;;;;;;5048687;28;20037;-87
2022/08/19 03:31:06;;;;;;;14.77;12.27;;;14.70;99.90;;;;;;5050314;28;20052;-87
2022/08/19 03:33:33;;;;;;;16.15;12.25;;;14.80;99.90;;;;;;5039529;28;20041;-86
2022/08/19 03:36:12;;;;;;;15.10;11.48;;;14.70;99.90;;;;;;5032980;28;20421;-86
2022/08/19 03:38:44;;;;;;;14.20;11.18;;;14.70;99.90;;;;;;5032517;28;20401;-86
2022/08/19 03:41:13;;;;;;;18.05;12.50;;;14.70;99.90;;;;;;5051526;28;20103;-87
2022/08/19 03:43:40;;;;;;;15.30;11.18;;;14.70;99.90;;;;;;5043970;28;20045;-86
2022/08/19 03:46:09;;;;;;;14.23;11.52;;;14.70;99.90;;;;;;5049628;28;20099;-86
2022/08/19 03:48:35;;;;;;;13.25;10.57;;;14.70;99.90;;;;;;5036820;28;20063;-86
2022/08/19 03:51:02;;;;;;;14.98;11.20;;;14.70;99.90;;;;;;5020955;28;20085;-87
2022/08/19 03:53:29;;;;;;;15.68;11.30;;;14.70;99.90;;;;;;5045088;28;20094;-87
2022/08/19 03:55:55;;;;;;;13.88;10.93;;;14.70;99.90;;;;;;5049573;28;20043;-86
2022/08/19 03:58:22;;;;;;;13.82;11.05;;;14.60;99.90;;;;;;5044892;28;20105;-87
2022/08/19 04:00:47;;;;;;;12.63;10.70;;;14.70;99.90;;;;;;5034826;28;20045;-87
2022/08/19 04:03:13;;;;;;;13.73;10.82;;;14.70;99.90;;;;;;5047715;28;20041;-86
2022/08/19 04:05:38;;;;;;;13.07;10.77;;;14.60;99.90;;;;;;5030278;28;20128;-87
2022/08/19 04:08:05;;;;;;;13.75;11.90;;;14.60;99.90;;;;;;5040698;28;20040;-87
2022/08/19 04:10:35;;;;;;;13.52;10.95;;;14.70;99.90;;;;;;5048505;28;20082;-87
2022/08/19 04:13:01;;;;;;;13.70;10.65;;;14.60;99.90;;;;;;5048641;28;20044;-86
2022/08/19 04:15:28;;;;;;;14.60;10.88;;;14.70;99.90;;;;;;5036223;28;20041;-87
2022/08/19 04:17:54;;;;;;;14.10;10.05;;;14.70;99.90;;;;;;5035052;28;20120;-87
2022/08/19 04:20:20;;;;;;;14.68;11.20;;;14.60;99.90;;;;;;5034625;28;20179;-86
2022/08/19 04:22:45;;;;;;;14.60;10.85;;;14.50;99.90;;;;;;5016655;28;20099;-86
2022/08/19 04:25:11;;;;;;;13.65;10.68;;;14.50;99.90;;;;;;5029028;28;20052;-87
2022/08/19 04:27:37;;;;;;;15.23;10.77;;;14.50;99.90;;;;;;5017851;28;20034;-87
2022/08/19 04:30:03;;;;;;;15.20;10.98;;;14.50;99.90;;;;;;5047639;28;20044;-87
2022/08/19 04:32:31;;;;;;;14.35;10.57;;;14.50;99.90;;;;;;5032354;28;20053;-86
2022/08/19 04:34:58;;;;;;;14.68;10.82;;;14.50;99.90;;;;;;5040416;28;20041;-86
2022/08/19 04:37:26;;;;;;;14.23;10.75;;;14.50;99.90;;;;;;5026212;28;20051;-85
2022/08/19 04:42:38;;;;;;;15.45;11.48;;;14.40;99.90;;;;;;5032729;28;20103;-86
2022/08/19 04:45:13;;;;;;;15.40;11.57;;;14.50;99.90;;;;;;5043847;28;20045;-86
2022/08/19 04:47:43;;;;;;;16.27;12.38;;;14.50;99.90;;;;;;5040865;28;20045;-86
2022/08/19 04:50:11;;;;;;;15.32;10.82;;;14.40;99.90;;;;;;5045306;28;20045;-87
2022/08/19 04:52:42;;;;;;;15.50;11.80;;;14.40;99.90;;;;;;5048231;28;20608;-87
2022/08/19 04:55:10;;;;;;;15.98;11.98;;;14.40;99.90;;;;;;5033219;28;20519;-87
2022/08/19 04:57:39;;;;;;;15.57;10.90;;;14.50;99.90;;;;;;5013370;28;20053;-87
2022/08/19 05:00:07;;;;;;;16.38;11.90;;;14.50;99.90;;;;;;5047327;28;20055;-87
2022/08/19 05:02:32;;;;;;;13.25;9.70;;;14.40;99.90;;;;;;5054406;28;20059;-87
2022/08/19 05:05:00;;;;;;;14.63;11.38;;;14.40;99.90;;;;;;5031626;28;20041;-87
2022/08/19 05:07:26;;;;;;;14.73;11.27;;;14.40;99.90;;;;;;5037774;28;20076;-88
2022/08/19 05:09:52;;;;;;;17.10;11.75;;;14.40;99.90;;;;;;5047392;28;20044;-88
2022/08/19 05:12:18;;;;;;;15.02;11.75;;;14.40;99.90;;;;;;5030702;28;20400;-88
2022/08/19 05:14:45;;;;;;;17.60;12.38;;;14.50;99.90;;;;;;5041373;28;20099;-88
2022/08/19 05:17:11;;;;;;;16.23;12.15;;;14.50;99.90;;;;;;5031895;28;20095;-88
2022/08/19 05:22:34;;;;;;;15.25;11.77;;;14.60;99.90;;;;;;5047943;28;20443;-88
2022/08/19 05:25:08;;;;;;;16.73;11.45;;;14.60;99.90;;;;;;5038313;28;20045;-89
2022/08/19 05:27:34;;;;;;;15.38;11.93;;;14.70;99.90;;;;;;5037822;28;20045;-87
2022/08/19 05:29:59;;;;;;;14.70;11.18;;;14.70;99.90;;;;;;5047069;28;20048;-90
2022/08/19 05:32:25;;;;;;;15.57;11.55;;;14.80;99.90;;;;;;5047051;28;20467;-88
2022/08/19 05:34:51;;;;;;;16.38;11.57;;;14.80;99.90;;;;;;5028281;28;20037;-87
2022/08/19 05:37:17;;;;;;;16.60;14.15;;;14.90;99.90;;;;;;5022207;28;20095;-89
2022/08/19 05:39:43;;;;;;;18.13;14.38;;;15.00;99.90;;;;;;5032947;28;20054;-88
2022/08/19 05:42:10;;;;;;;19.25;15.05;;;15.10;99.90;;;;;;5018609;28;20368;-87
2022/08/19 05:44:39;;;;;;;18.60;14.98;;;15.20;99.90;;;;;;5032964;28;20041;-88
2022/08/19 05:47:08;;;;;;;17.23;14.15;;;15.40;99.90;;;;;;5016291;28;20042;-86
2022/08/19 05:49:36;;;;;;;15.95;14.05;;;15.50;99.90;;;;;;5027995;28;20107;-86
2022/08/19 05:52:05;;;;;;;17.75;14.57;;;15.60;99.90;;;;;;5046332;28;20106;-87
2022/08/19 05:54:31;;;;;;;18.73;15.65;;;15.60;99.90;;;;;;5042745;28;20075;-85
2022/08/19 05:56:56;;;;;;;17.60;15.65;;;15.70;99.90;;;;;;5047332;28;20481;-87
2022/08/19 05:59:23;;;;;;;21.23;17.73;;;15.80;99.90;;;;;;5030209;28;20132;-87
2022/08/19 06:01:50;;;;;;;19.35;16.67;;;15.90;99.90;;;;;;5044708;28;20504;-87
2022/08/19 06:04:18;;;;;;;20.40;17.17;;;16.00;99.90;;;;;;5020658;28;20111;-87
2022/08/19 06:06:48;;;;;;;18.65;16.05;;;16.10;99.90;;;;;;5045838;28;20037;-90
2022/08/19 06:09:14;;;;;;;20.95;16.90;;;16.20;99.90;;;;;;5033797;28;20048;-88
2022/08/19 06:11:46;;;;;;;21.58;17.02;;;16.30;99.90;;;;;;5027627;28;20049;-91
2022/08/19 06:14:20;;;;;;;21.27;17.08;;;16.40;99.90;;;;;;5046217;28;20056;-90
2022/08/19 06:16:46;;;;;;;21.95;17.77;;;16.50;99.90;;;;;;5039448;28;20053;-90
2022/08/19 06:19:15;;;;;;;19.55;16.58;;;16.60;99.90;;;;;;5029262;28;20081;-93
2022/08/19 06:21:43;;;;;;;20.02;16.65;;;16.60;99.90;;;;;;5044237;28;20053;-93
2022/08/19 06:24:12;;;;;;;21.60;18.00;;;16.70;99.90;;;;;;5037196;28;20558;-92
2022/08/19 06:26:40;;;;;;;22.70;18.48;;;16.80;99.90;;;;;;5047168;28;20040;-91
2022/08/19 06:29:08;;;;;;;23.13;18.88;;;16.90;99.90;;;;;;5030769;28;20037;-89
2022/08/19 06:31:34;;;;;;;22.73;19.25;;;17.00;99.90;;;;;;5043873;28;20052;-89
2022/08/19 06:34:05;;;;;;;22.13;18.92;;;17.10;99.90;;;;;;5044225;28;20041;-90
2022/08/19 06:36:34;;;;;;;23.75;19.38;;;17.20;99.90;;;;;;5044525;28;20045;-90
2022/08/19 06:39:06;;;;;;;23.15;20.23;;;17.30;99.90;;;;;;5055160;28;20358;-96
2022/08/19 06:41:39;;;;;;;26.58;20.92;;;17.40;99.90;;;;;;5054131;28;20436;-94
2022/08/19 06:44:05;;;;;;;24.60;21.70;;;17.50;99.90;;;;;;5036134;28;20599;-93
2022/08/19 06:46:31;;;;;;;27.70;22.48;;;17.70;99.90;;;;;;5054121;28;20380;-93
2022/08/19 06:48:57;;;;;;;27.15;22.95;;;17.80;99.90;;;;;;5036157;28;20047;-94
2022/08/19 06:51:24;;;;;;;24.98;22.30;;;17.90;99.90;;;;;;5048292;28;20077;-93
2022/08/19 06:53:52;;;;;;;27.05;23.45;;;18.00;99.90;;;;;;5052810;28;20049;-94
2022/08/19 06:56:21;;;;;;;24.35;21.55;;;18.00;99.90;;;;;;5017719;28;20053;-94
2022/08/19 06:58:50;;;;;;;24.98;22.23;;;18.20;99.90;;;;;;5033355;28;20050;-95
2022/08/19 07:01:16;;;;;;;24.73;22.10;;;18.40;99.90;;;;;;5049043;28;20074;-93
2022/08/19 07:03:42;;;;;;;25.98;23.15;;;18.40;99.90;;;;;;5054583;28;20045;-94
2022/08/19 07:06:11;;;;;;;23.85;21.05;;;18.50;99.90;;;;;;5053156;28;20043;-93
2022/08/19 07:08:40;;;;;;;24.48;21.33;;;18.60;99.90;;;;;;5025814;28;20175;-94
2022/08/19 07:11:12;;;;;;;24.05;20.45;;;18.70;99.90;;;;;;5033077;28;20056;-93
2022/08/19 07:13:39;;;;;;;25.98;21.50;;;18.70;99.90;;;;;;5046231;28;20138;-93
2022/08/19 07:16:07;;;;;;;25.48;20.98;;;18.80;99.90;;;;;;5035794;28;20503;-94
2022/08/19 07:18:33;;;;;;;23.85;21.35;;;18.90;99.90;;;;;;5051685;28;20076;-92
2022/08/19 07:21:15;;;;;;;23.45;21.05;;;19.10;99.90;;;;;;5024927;28;20099;-93
2022/08/19 07:23:42;;;;;;;22.20;19.83;;;19.20;99.90;;;;;;5056548;28;20477;-93
2022/08/19 07:26:10;;;;;;;21.88;19.48;;;19.30;99.90;;;;;;5038274;28;20103;-94
2022/08/19 07:28:38;;;;;;;23.05;19.70;;;19.40;99.90;;;;;;5033579;28;20045;-93
2022/08/19 07:31:06;;;;;;;21.98;19.23;;;19.50;99.90;;;;;;5042879;28;20083;-94
2022/08/19 07:33:36;;;;;;;21.27;18.23;;;19.70;99.90;;;;;;5036604;28;20539;-94
2022/08/19 07:36:04;;;;;;;19.92;17.70;;;19.70;99.90;;;;;;5030708;28;20047;-88
2022/08/19 07:38:29;;;;;;;20.23;18.13;;;19.80;99.90;;;;;;5050904;28;20063;-90
2022/08/19 07:40:55;;;;;;;18.98;16.98;;;19.90;99.90;;;;;;5032950;28;20135;-90
2022/08/19 07:43:26;;;;;;;18.67;16.67;;;19.90;99.90;;;;;;5050147;28;20037;-90
2022/08/19 07:45:55;;;;;;;19.58;17.45;;;20.00;99.90;;;;;;5048716;28;20052;-90
2022/08/19 07:48:26;;;;;;;20.10;17.98;;;20.10;99.90;;;;;;5033035;28;20071;-88
2022/08/19 07:50:57;;;;;;;20.05;17.52;;;20.20;99.90;;;;;;5048182;28;20041;-90
2022/08/19 07:53:24;;;;;;;18.38;16.40;;;20.20;99.90;;;;;;5050066;28;20131;-89
2022/08/19 07:55:51;;;;;;;18.55;16.70;;;20.30;99.90;;;;;;5048331;28;20048;-89
2022/08/19 07:58:19;;;;;;;19.25;17.13;;;20.30;99.90;;;;;;5048224;28;20045;-90
2022/08/19 08:00:46;;;;;;;18.95;16.63;;;20.40;99.90;;;;;;5031098;28;20052;-89
2022/08/19 08:03:14;;;;;;;17.50;15.70;;;20.50;99.90;;;;;;5048245;28;20040;-90
2022/08/19 08:11:05;;;;;;;19.25;16.15;;;20.70;99.90;;;;;;5050466;28;20056;-93
2022/08/19 08:13:32;;;;;;;17.85;15.73;;;20.70;99.90;;;;;;5051842;28;20052;-94
2022/08/19 08:15:58;;;;;;;19.63;15.15;;;20.80;99.90;;;;;;5017485;28;20437;-92
2022/08/19 08:18:24;;;;;;;16.08;14.13;;;20.90;99.90;;;;;;5016059;28;20099;-93
2022/08/19 08:20:50;;;;;;;16.45;14.50;;;21.00;99.90;;;;;;5045384;28;20045;-92
2022/08/19 08:23:22;;;;;;;16.48;13.70;;;21.00;99.90;;;;;;5054232;28;20076;-92
2022/08/19 08:25:48;;;;;;;16.35;14.27;;;21.10;99.90;;;;;;5047990;28;20080;-93
2022/08/19 08:28:15;;;;;;;17.13;15.02;;;21.20;99.90;;;;;;5052155;28;20048;-92
2022/08/19 08:30:43;;;;;;;17.88;15.98;;;21.20;99.90;;;;;;5034362;28;20041;-90
2022/08/19 08:33:09;;;;;;;18.88;15.48;;;21.30;99.90;;;;;;5049100;28;20056;-89
2022/08/19 08:35:35;;;;;;;18.60;16.40;;;21.40;99.90;;;;;;5031643;28;20042;-90
2022/08/19 08:38:01;;;;;;;18.80;16.73;;;21.40;99.90;;;;;;5028365;28;20157;-89
2022/08/19 08:40:49;;;;;;;18.92;15.77;;;21.40;99.90;;;;;;5029630;28;20120;-89
2022/08/19 08:43:26;;;;;;;17.50;15.63;;;21.40;99.90;;;;;;5024544;28;20143;-89
2022/08/19 08:46:04;;;;;;;17.65;15.68;;;21.50;99.90;;;;;;5037190;28;20048;-90
2022/08/19 08:48:34;;;;;;;19.52;15.68;;;21.50;99.90;;;;;;5032253;28;20045;-89
2022/08/19 08:51:03;;;;;;;17.70;15.88;;;21.50;99.90;;;;;;5036350;28;20037;-88
2022/08/19 08:53:31;;;;;;;18.73;14.95;;;21.60;99.90;;;;;;5049117;28;20038;-90
2022/08/19 08:56:00;;;;;;;16.42;14.70;;;21.60;99.90;;;;;;5048038;28;20061;-90
2022/08/19 08:58:41;;;;;;;17.13;15.35;;;21.70;99.90;;;;;;5050233;28;20142;-91
2022/08/19 09:01:10;;;;;;;17.42;15.52;;;21.80;99.90;;;;;;5020485;28;20409;-90
2022/08/19 09:03:37;;;;;;;17.48;14.70;;;21.80;99.90;;;;;;5033394;28;20044;-90
2022/08/19 09:06:03;;;;;;;19.15;17.15;;;21.90;99.90;;;;;;5048943;28;20103;-91
2022/08/19 09:08:47;;;;;;;17.38;15.35;;;22.00;99.90;;;;;;5039856;28;20045;-91
2022/08/19 09:11:33;;;;;;;19.45;17.35;;;22.00;99.90;;;;;;5019028;28;20131;-92
2022/08/19 09:14:21;;;;;;;17.88;15.80;;;22.00;99.90;;;;;;5036715;28;20037;-94
2022/08/19 09:16:48;;;;;;;16.80;15.02;;;22.10;99.90;;;;;;5038898;28;20041;-92
2022/08/19 09:19:13;;;;;;;19.77;17.67;;;22.10;99.90;;;;;;5042696;28;20091;-89
2022/08/19 09:21:39;;;;;;;19.08;17.08;;;22.10;99.90;;;;;;5051376;28;20048;-87
2022/08/19 09:24:05;;;;;;;18.90;16.60;;;22.10;99.90;;;;;;5028950;28;20056;-90
2022/08/19 09:26:32;;;;;;;21.15;18.88;;;22.30;99.90;;;;;;5057661;28;20120;-90
2022/08/19 09:28:59;;;;;;;19.63;17.48;;;22.30;99.90;;;;;;5051317;28;20052;-90
2022/08/19 09:31:27;;;;;;;20.05;17.42;;;22.30;99.90;;;;;;5050038;28;20049;-89
2022/08/19 09:33:56;;;;;;;22.58;20.17;;;22.40;99.90;;;;;;5054572;28;20148;-91
2022/08/19 09:36:24;;;;;;;20.70;17.80;;;22.50;99.90;;;;;;5048448;28;20048;-89
2022/08/19 09:38:51;;;;;;;19.05;16.98;;;22.40;99.90;;;;;;5048156;28;20382;-90
2022/08/19 09:41:20;;;;;;;18.33;16.40;;;22.50;99.90;;;;;;5044415;28;20045;-88
2022/08/19 09:43:49;;;;;;;17.88;15.98;;;22.50;99.90;;;;;;5036507;28;20467;-90
2022/08/19 09:46:17;;;;;;;18.40;16.38;;;22.50;99.90;;;;;;5029605;28;20094;-89
2022/08/19 09:48:44;;;;;;;16.13;14.43;;;22.60;99.90;;;;;;5025226;28;20052;-89
2022/08/19 09:51:16;;;;;;;20.67;15.20;;;22.60;99.90;;;;;;5036088;28;20133;-89
2022/08/19 09:53:43;;;;;;;17.60;14.68;;;22.70;99.90;;;;;;5036819;28;20561;-86
2022/08/19 09:56:10;;;;;;;16.85;14.52;;;22.70;99.90;;;;;;5045249;28;20056;-89
2022/08/19 09:58:37;;;;;;;18.88;16.98;;;22.70;99.90;;;;;;5046670;28;20048;-88
2022/08/19 10:01:04;;;;;;;15.50;13.90;;;22.80;99.90;;;;;;5043666;28;20357;-88
2022/08/19 10:03:31;;;;;;;17.33;15.52;;;22.80;99.90;;;;;;5035163;28;20037;-87
2022/08/19 10:05:59;;;;;;;15.48;13.77;;;22.90;99.90;;;;;;5013976;28;20081;-88
2022/08/19 10:08:28;;;;;;;16.10;13.88;;;22.90;99.90;;;;;;5031722;28;20037;-87
2022/08/19 10:10:54;;;;;;;15.13;13.48;;;23.00;99.90;;;;;;5047873;28;20045;-86
2022/08/19 10:13:23;;;;;;;15.93;14.20;;;23.00;99.90;;;;;;5050545;28;20049;-86
2022/08/19 10:15:52;;;;;;;16.13;14.43;;;23.10;99.90;;;;;;5030460;28;20052;-86
2022/08/19 10:18:20;;;;;;;15.30;13.70;;;23.10;99.90;;;;;;5049425;28;20103;-87
2022/08/19 10:20:47;;;;;;;15.23;13.63;;;23.10;99.90;;;;;;5032826;28;20053;-85
2022/08/19 10:23:13;;;;;;;14.57;12.75;;;23.20;99.90;;;;;;5031118;28;20520;-86
2022/08/19 10:25:39;;;;;;;13.13;11.07;;;23.30;99.90;;;;;;5034329;28;20056;-87
2022/08/19 10:28:07;;;;;;;12.85;11.10;;;23.30;99.90;;;;;;5051225;28;20053;-85
2022/08/19 10:30:33;;;;;;;12.38;11.00;;;23.40;99.90;;;;;;5052563;28;20124;-87
2022/08/19 10:32:59;;;;;;;13.18;11.73;;;23.40;99.90;;;;;;5049908;28;20045;-87
2022/08/19 10:35:29;;;;;;;12.35;11.02;;;23.50;99.90;;;;;;5046616;28;20124;-86
2022/08/19 10:37:58;;;;;;;12.82;10.85;;;23.50;99.90;;;;;;5051357;28;20672;-86
2022/08/19 10:40:26;;;;;;;14.00;12.00;;;23.60;99.90;;;;;;5038252;28;20389;-86
2022/08/19 10:42:52;;;;;;;13.52;12.13;;;23.50;99.90;;;;;;5013297;28;20056;-85
2022/08/19 10:45:18;;;;;;;11.77;10.57;;;23.70;99.90;;;;;;5023604;28;20048;-85
2022/08/19 10:47:43;;;;;;;11.15;9.18;;;23.70;99.90;;;;;;5022792;28;20038;-87
2022/08/19 10:52:54;;;;;;;11.07;8.98;;;23.70;99.90;;;;;;5031709;28;20107;-85
2022/08/19 10:58:13;;;;;;;13.32;10.48;;;23.90;99.90;;;;;;5049520;28;20041;-87
2022/08/19 11:00:40;;;;;;;9.80;8.13;;;24.00;99.90;;;;;;5049514;28;20051;-86
2022/08/19 11:03:06;;;;;;;8.80;6.80;;;24.20;99.90;;;;;;5051256;28;20377;-86
2022/08/19 11:05:31;;;;;;;11.00;8.13;;;24.00;99.90;;;;;;5051307;28;20045;-85
2022/08/19 11:07:57;;;;;;;8.77;7.22;;;24.10;99.90;;;;;;5042674;28;20493;-87
2022/08/19 11:10:23;;;;;;;10.45;7.70;;;24.10;99.90;;;;;;5044539;28;20104;-86
2022/08/19 11:12:52;;;;;;;9.82;8.70;;;24.20;99.90;;;;;;5032669;28;20045;-86
2022/08/19 11:15:18;;;;;;;10.90;9.60;;;24.20;99.90;;;;;;5050937;28;20096;-87
2022/08/19 11:17:44;;;;;;;9.85;8.63;;;24.30;99.90;;;;;;5050581;28;20045;-86
2022/08/19 11:20:12;;;;;;;12.07;10.00;;;24.30;99.90;;;;;;5034315;28;20049;-85
2022/08/19 11:22:39;;;;;;;11.38;9.40;;;24.50;99.90;;;;;;5058797;28;20060;-86
2022/08/19 11:25:06;;;;;;;10.15;8.88;;;24.50;99.90;;;;;;5023215;28;20095;-85
2022/08/19 11:27:32;;;;;;;12.02;9.15;;;24.60;99.90;;;;;;5049412;28;20064;-84
2022/08/19 11:29:57;;;;;;;12.00;10.43;;;24.60;99.90;;;;;;5050573;28;20049;-86
2022/08/19 11:32:23;;;;;;;12.48;9.15;;;24.60;99.90;;;;;;5049929;28;20055;-85
2022/08/19 11:34:49;;;;;;;11.70;8.82;;;24.70;99.90;;;;;;5050067;28;20139;-86
2022/08/19 11:37:15;;;;;;;11.38;9.60;;;24.70;99.90;;;;;;5048701;28;20048;-85
2022/08/19 11:39:41;;;;;;;10.30;7.97;;;24.70;99.90;;;;;;5033742;28;20045;-87
2022/08/19 11:44:51;;;;;;;11.68;8.98;;;24.70;99.90;;;;;;5049554;28;20041;-86
2022/08/19 11:47:18;;;;;;;10.93;8.27;;;24.60;99.90;;;;;;5045141;28;20041;-85
2022/08/19 11:49:46;;;;;;;9.40;7.72;;;24.70;99.90;;;;;;5030890;28;20057;-86
2022/08/19 11:52:14;;;;;;;9.32;6.85;;;24.80;99.90;;;;;;5036110;28;20397;-86
2022/08/19 11:54:39;;;;;;;11.65;10.45;;;24.80;99.90;;;;;;5034971;28;20504;-87
2022/08/19 11:57:05;;;;;;;11.82;9.25;;;24.90;99.90;;;;;;5043388;28;20144;-87
2022/08/19 11:59:30;;;;;;;12.60;11.30;;;25.00;99.90;;;;;;5032231;28;20175;-87
2022/08/19 12:01:57;;;;;;;11.95;10.65;;;25.10;99.90;;;;;;5031868;28;20048;-86
2022/08/19 12:04:23;;;;;;;11.80;10.38;;;25.20;99.90;;;;;;5032151;28;20045;-86
2022/08/19 12:06:49;;;;;;;12.68;10.52;;;25.20;99.90;;;;;;5015110;28;20045;-87
2022/08/19 12:09:17;;;;;;;13.10;11.05;;;25.50;99.90;;;;;;5049940;28;20054;-85
2022/08/19 12:11:43;;;;;;;11.32;9.60;;;25.50;99.90;;;;;;5049540;28;20037;-86
2022/08/19 12:14:13;;;;;;;10.85;9.75;;;25.50;99.90;;;;;;5049394;28;20029;-85
2022/08/19 12:16:40;;;;;;;10.90;9.65;;;25.50;99.90;;;;;;5013592;28;20111;-85
2022/08/19 12:19:06;;;;;;;12.90;10.48;;;25.50;99.90;;;;;;5046574;28;20045;-85
2022/08/19 12:21:34;;;;;;;12.38;9.20;;;25.50;99.90;;;;;;5031763;28;20068;-85
2022/08/19 12:24:02;;;;;;;11.50;10.30;;;25.50;99.90;;;;;;5029303;28;20037;-84
2022/08/19 12:26:31;;;;;;;12.43;9.82;;;25.50;99.90;;;;;;5050249;28;20127;-85
2022/08/19 12:28:59;;;;;;;10.27;7.80;;;25.50;99.90;;;;;;5049225;28;20088;-85
2022/08/19 12:31:25;;;;;;;10.43;7.47;;;25.40;99.90;;;;;;5012922;28;20037;-84
2022/08/19 12:33:52;;;;;;;10.35;7.80;;;25.50;99.90;;;;;;5026695;28;20052;-84
2022/08/19 12:36:18;;;;;;;9.63;7.00;;;25.50;99.90;;;;;;5012960;28;20047;-85
2022/08/19 12:38:44;;;;;;;9.95;6.97;;;25.40;99.90;;;;;;5049305;28;20049;-85
2022/08/19 12:41:12;;;;;;;9.85;6.50;;;25.40;99.90;;;;;;5015900;28;20454;-86
2022/08/19 12:43:38;;;;;;;9.35;5.32;;;25.40;99.90;;;;;;5048410;28;20136;-86
2022/08/19 12:46:05;;;;;;;6.68;4.20;;;25.40;99.90;;;;;;5047746;28;20116;-85
2022/08/19 12:48:32;;;;;;;7.43;4.45;;;25.40;99.90;;;;;;5048986;28;20041;-88
2022/08/19 12:50:58;;;;;;;7.85;5.03;;;25.40;99.90;;;;;;5048957;28;20044;-86
2022/08/19 12:53:24;;;;;;;7.30;4.90;;;25.50;99.90;;;;;;5048790;28;20409;-87